Time;durP1;ratioP1;P1;durP2;ratioP2;P2;SDS_P1;SDS_P2;PMS_P1;PMS_P2;Temp;Humidity;BMP_temperature;BMP_pressure;BME280_temperature;BME280_humidity;BME280_pressure;Samples;Min_cycle;Max_cycle;Signal;HPM_P1;HPM_P2
2023/08/01 00:00:05;;;;;;;17.75;5.35;;;17.30;99.90;;;;;;5030927;28;20191;-76
2023/08/01 00:02:31;;;;;;;18.98;5.63;;;17.30;99.90;;;;;;5030664;28;20459;-75
2023/08/01 00:04:57;;;;;;;17.10;5.47;;;17.30;99.90;;;;;;5031633;28;20096;-76
2023/08/01 00:07:22;;;;;;;21.95;5.97;;;17.30;99.90;;;;;;5030376;28;20041;-75
2023/08/01 00:09:48;;;;;;;19.73;5.68;;;17.20;99.90;;;;;;5031908;28;20046;-75
2023/08/01 00:12:14;;;;;;;18.17;5.60;;;17.30;99.90;;;;;;5030549;28;20475;-74
2023/08/01 00:14:40;;;;;;;18.40;5.63;;;17.30;99.90;;;;;;5031773;28;20060;-76
2023/08/01 00:17:06;;;;;;;13.98;4.65;;;17.20;99.90;;;;;;5030411;28;20045;-76
2023/08/01 00:19:31;;;;;;;14.75;4.93;;;17.10;99.90;;;;;;5031454;28;20220;-76
2023/08/01 00:21:57;;;;;;;8.63;4.13;;;17.10;99.90;;;;;;5031824;28;20116;-76
2023/08/01 00:24:23;;;;;;;10.18;4.47;;;17.10;99.90;;;;;;5031313;28;20056;-74
2023/08/01 00:26:48;;;;;;;10.55;4.07;;;17.10;99.90;;;;;;5031859;28;20041;-75
2023/08/01 00:29:14;;;;;;;12.25;5.07;;;17.10;99.90;;;;;;5030371;28;20494;-74
2023/08/01 00:31:40;;;;;;;12.02;4.45;;;17.00;99.90;;;;;;5031179;28;20049;-76
2023/08/01 00:34:05;;;;;;;12.18;4.60;;;17.00;99.90;;;;;;5031306;28;20049;-76
2023/08/01 00:36:31;;;;;;;11.15;4.70;;;17.00;99.90;;;;;;5030977;28;20125;-76
2023/08/01 00:38:57;;;;;;;14.90;4.70;;;17.00;99.90;;;;;;5034728;28;20061;-76
2023/08/01 00:41:23;;;;;;;9.85;4.32;;;17.00;99.90;;;;;;5034759;28;20419;-75
2023/08/01 00:43:49;;;;;;;11.35;4.43;;;17.00;99.90;;;;;;5017645;28;20055;-74
2023/08/01 00:46:15;;;;;;;10.00;4.70;;;17.00;99.90;;;;;;5035233;28;20056;-74
2023/08/01 00:48:40;;;;;;;12.45;4.53;;;17.00;99.90;;;;;;5033331;28;20116;-74
2023/08/01 00:51:08;;;;;;;11.38;4.45;;;17.10;99.90;;;;;;5035100;28;20107;-77
2023/08/01 00:53:35;;;;;;;15.10;5.05;;;17.00;99.90;;;;;;5033600;28;20491;-74
2023/08/01 00:56:00;;;;;;;14.25;5.30;;;17.00;99.90;;;;;;5035198;28;20406;-76
2023/08/01 00:58:26;;;;;;;10.57;4.13;;;17.00;99.90;;;;;;5033703;28;20056;-74
2023/08/01 01:00:52;;;;;;;11.98;4.20;;;17.00;99.90;;;;;;5034140;28;20481;-75
2023/08/01 01:03:18;;;;;;;13.10;4.10;;;16.90;99.90;;;;;;5033637;28;20051;-75
2023/08/01 01:05:53;;;;;;;11.05;4.30;;;16.90;99.90;;;;;;5033480;28;20055;-75
2023/08/01 01:08:20;;;;;;;11.45;4.53;;;16.80;99.90;;;;;;5033877;28;20041;-76
2023/08/01 01:10:46;;;;;;;9.75;4.28;;;16.80;99.90;;;;;;5034404;28;20041;-75
2023/08/01 01:13:12;;;;;;;8.05;3.88;;;16.80;99.90;;;;;;5033851;28;20091;-75
2023/08/01 01:15:38;;;;;;;10.77;4.15;;;16.80;99.90;;;;;;5034405;28;20049;-75
2023/08/01 01:18:03;;;;;;;10.25;4.38;;;16.80;99.90;;;;;;5034916;28;20092;-76
2023/08/01 01:20:36;;;;;;;9.02;3.80;;;16.70;99.90;;;;;;5035177;28;20076;-76
2023/08/01 01:23:05;;;;;;;8.43;3.83;;;16.70;99.90;;;;;;5038176;28;20056;-76
2023/08/01 01:25:32;;;;;;;13.35;3.88;;;16.60;99.90;;;;;;5054577;28;20060;-76
2023/08/01 01:27:59;;;;;;;8.15;3.40;;;16.60;99.90;;;;;;5036782;28;20045;-75
2023/08/01 01:30:27;;;;;;;8.57;3.90;;;16.60;99.90;;;;;;5035418;28;20060;-73
2023/08/01 01:32:53;;;;;;;10.85;4.07;;;16.60;99.90;;;;;;5035590;28;20050;-75
2023/08/01 01:35:19;;;;;;;13.30;4.05;;;16.50;99.90;;;;;;5033383;28;20038;-75
2023/08/01 01:37:44;;;;;;;9.52;4.13;;;16.50;99.90;;;;;;5033248;28;20103;-75
2023/08/01 01:40:10;;;;;;;9.50;4.40;;;16.50;99.90;;;;;;5033997;28;20065;-74
2023/08/01 01:42:36;;;;;;;11.88;4.55;;;16.50;99.90;;;;;;5033080;28;20454;-74
2023/08/01 01:45:02;;;;;;;12.35;4.40;;;16.50;99.90;;;;;;5034220;28;20045;-74
2023/08/01 01:47:28;;;;;;;10.02;4.32;;;16.50;99.90;;;;;;5033247;28;20060;-73
2023/08/01 01:49:54;;;;;;;13.90;4.22;;;16.50;99.90;;;;;;5032849;28;20391;-74
2023/08/01 01:52:20;;;;;;;8.93;4.45;;;16.40;99.90;;;;;;5034451;28;20049;-75
2023/08/01 01:54:45;;;;;;;9.38;4.35;;;16.40;99.90;;;;;;5015956;28;20045;-75
2023/08/01 01:57:11;;;;;;;12.32;5.03;;;16.40;99.90;;;;;;5016182;28;20049;-75
2023/08/01 01:59:36;;;;;;;14.80;4.82;;;16.40;99.90;;;;;;5033408;28;20044;-75
2023/08/01 02:02:03;;;;;;;9.80;4.40;;;16.40;99.90;;;;;;5033931;28;20046;-76
2023/08/01 02:04:30;;;;;;;10.50;4.63;;;16.40;99.90;;;;;;5033925;28;20395;-73
2023/08/01 02:06:55;;;;;;;10.25;4.70;;;16.30;99.90;;;;;;5033628;28;20103;-76
2023/08/01 02:09:21;;;;;;;11.48;4.53;;;16.40;99.90;;;;;;5033365;28;20037;-76
2023/08/01 02:11:47;;;;;;;10.85;4.50;;;16.30;99.90;;;;;;5033420;28;20048;-75
2023/08/01 02:14:13;;;;;;;11.00;5.05;;;16.30;99.90;;;;;;5032515;28;20052;-76
2023/08/01 02:16:39;;;;;;;10.80;4.57;;;16.30;99.90;;;;;;5033159;28;20395;-75
2023/08/01 02:19:04;;;;;;;9.98;4.50;;;16.30;99.90;;;;;;5033436;28;20042;-76
2023/08/01 02:21:30;;;;;;;11.30;5.35;;;16.20;99.90;;;;;;5032656;28;20052;-76
2023/08/01 02:23:56;;;;;;;12.38;5.30;;;16.20;99.90;;;;;;5033016;28;20049;-75
2023/08/01 02:26:23;;;;;;;10.00;4.70;;;16.20;99.90;;;;;;5032154;28;20053;-76
2023/08/01 02:28:49;;;;;;;10.55;4.43;;;16.10;99.90;;;;;;5032904;28;20099;-74
2023/08/01 02:31:16;;;;;;;11.90;4.70;;;16.10;99.90;;;;;;5032879;28;20140;-75
2023/08/01 02:33:42;;;;;;;14.63;5.65;;;16.10;99.90;;;;;;5031812;28;20033;-76
2023/08/01 02:36:07;;;;;;;10.95;5.15;;;16.00;99.90;;;;;;5032347;28;20507;-76
2023/08/01 02:38:33;;;;;;;8.65;4.50;;;16.00;99.90;;;;;;5032058;28;20065;-74
2023/08/01 02:40:59;;;;;;;11.07;4.38;;;16.00;99.90;;;;;;5032892;28;20103;-74
2023/08/01 02:43:25;;;;;;;14.07;4.40;;;15.90;99.90;;;;;;5033175;28;20057;-75
2023/08/01 02:45:50;;;;;;;15.70;4.70;;;15.90;99.90;;;;;;5032801;28;20059;-74
2023/08/01 02:48:16;;;;;;;10.45;4.32;;;15.90;99.90;;;;;;5032072;28;20487;-74
2023/08/01 02:50:42;;;;;;;6.88;4.28;;;15.90;99.90;;;;;;5031494;28;20107;-74
2023/08/01 02:53:08;;;;;;;18.20;5.15;;;15.90;99.90;;;;;;5033025;28;20037;-76
2023/08/01 02:55:33;;;;;;;9.55;4.32;;;15.90;99.90;;;;;;5033028;28;20048;-75
2023/08/01 02:57:59;;;;;;;8.63;4.20;;;15.80;99.90;;;;;;5014836;28;20505;-74
2023/08/01 03:00:25;;;;;;;9.52;4.50;;;15.80;99.90;;;;;;5030920;28;20099;-75
2023/08/01 03:02:51;;;;;;;8.90;3.80;;;15.80;99.90;;;;;;5032350;28;20072;-75
2023/08/01 03:05:17;;;;;;;6.50;3.95;;;15.80;99.90;;;;;;5031622;28;20045;-75
2023/08/01 03:07:42;;;;;;;11.73;4.28;;;15.80;99.90;;;;;;5031150;28;20136;-75
2023/08/01 03:10:11;;;;;;;14.35;4.35;;;15.80;99.90;;;;;;5031285;28;20041;-76
2023/08/01 03:12:37;;;;;;;11.75;5.13;;;15.80;99.90;;;;;;5015409;28;20479;-74
2023/08/01 03:15:03;;;;;;;10.88;4.80;;;15.80;99.90;;;;;;5032220;28;20049;-75
2023/08/01 03:17:29;;;;;;;10.50;4.70;;;15.80;99.90;;;;;;5031321;28;20050;-75
2023/08/01 03:19:54;;;;;;;11.35;4.85;;;15.80;99.90;;;;;;5032082;28;20600;-76
2023/08/01 03:22:21;;;;;;;12.15;4.45;;;15.90;99.90;;;;;;5031152;28;20081;-76
2023/08/01 03:24:47;;;;;;;11.73;4.38;;;15.90;99.90;;;;;;5032045;28;20046;-74
2023/08/01 03:27:12;;;;;;;14.27;5.32;;;15.90;99.90;;;;;;5032440;28;20409;-74
2023/08/01 03:29:38;;;;;;;17.05;5.82;;;15.90;99.90;;;;;;5031943;28;20505;-74
2023/08/01 03:32:05;;;;;;;14.40;5.45;;;15.90;99.90;;;;;;5031860;28;20049;-74
2023/08/01 03:34:30;;;;;;;17.40;5.85;;;16.00;99.90;;;;;;5031251;28;20128;-75
2023/08/01 03:36:56;;;;;;;14.90;5.75;;;16.00;99.90;;;;;;5032012;28;20128;-75
2023/08/01 03:39:22;;;;;;;14.13;5.70;;;16.00;99.90;;;;;;5032079;28;20068;-75
2023/08/01 03:41:47;;;;;;;14.32;6.22;;;15.90;99.90;;;;;;5031763;28;20045;-74
2023/08/01 03:44:14;;;;;;;16.17;5.63;;;15.90;99.90;;;;;;5036224;28;20207;-74
2023/08/01 03:46:40;;;;;;;12.60;5.30;;;15.90;99.90;;;;;;5033543;28;20092;-73
2023/08/01 03:49:06;;;;;;;10.57;5.53;;;15.90;99.90;;;;;;5016009;28;20045;-73
2023/08/01 03:51:32;;;;;;;14.02;5.70;;;15.90;99.90;;;;;;5032097;28;20053;-73
2023/08/01 03:53:57;;;;;;;9.60;5.05;;;15.90;99.90;;;;;;5030301;28;20072;-75
2023/08/01 03:56:23;;;;;;;11.70;5.68;;;15.80;99.90;;;;;;5030926;28;20136;-75
2023/08/01 03:58:48;;;;;;;11.90;4.85;;;15.80;99.90;;;;;;5030634;28;20159;-76
2023/08/01 04:01:14;;;;;;;13.55;5.25;;;15.80;99.90;;;;;;5030718;28;20475;-76
2023/08/01 04:03:40;;;;;;;13.23;4.53;;;15.80;99.90;;;;;;5031964;28;20050;-75
2023/08/01 04:06:06;;;;;;;8.68;5.00;;;15.80;99.90;;;;;;5030389;28;20045;-76
2023/08/01 04:08:31;;;;;;;11.82;4.80;;;15.80;99.90;;;;;;5030454;28;20060;-75
2023/08/01 04:10:57;;;;;;;9.80;4.60;;;15.80;99.90;;;;;;5033261;28;20050;-75
2023/08/01 04:13:23;;;;;;;13.05;4.63;;;15.80;99.90;;;;;;5034688;28;20053;-77
2023/08/01 04:15:48;;;;;;;11.82;4.57;;;15.70;99.90;;;;;;5035499;28;20046;-74
2023/08/01 04:18:14;;;;;;;10.40;4.90;;;15.70;99.90;;;;;;5034734;28;20467;-76
2023/08/01 04:20:40;;;;;;;11.75;3.92;;;15.70;99.90;;;;;;5034822;28;20041;-76
2023/08/01 04:23:05;;;;;;;10.65;3.47;;;15.70;99.90;;;;;;5017951;28;20046;-75
2023/08/01 04:25:31;;;;;;;15.95;4.05;;;15.70;99.90;;;;;;5034579;28;20045;-76
2023/08/01 04:27:56;;;;;;;8.55;3.35;;;15.70;99.90;;;;;;5034239;28;20152;-76
2023/08/01 04:30:22;;;;;;;9.52;3.33;;;15.70;99.90;;;;;;5035822;28;20041;-75
2023/08/01 04:32:48;;;;;;;12.02;3.78;;;15.70;99.90;;;;;;5035622;28;20129;-76
2023/08/01 04:35:14;;;;;;;8.48;3.20;;;15.70;99.90;;;;;;5034954;28;20041;-75
2023/08/01 04:37:39;;;;;;;11.07;3.08;;;15.70;99.90;;;;;;5034181;28;20045;-75
2023/08/01 04:40:06;;;;;;;7.70;2.92;;;15.70;99.90;;;;;;5033470;28;20054;-75
2023/08/01 04:42:31;;;;;;;9.90;3.58;;;15.70;99.90;;;;;;5035207;28;20056;-76
2023/08/01 04:44:57;;;;;;;7.55;3.03;;;15.70;99.90;;;;;;5033988;28;20037;-75
2023/08/01 04:47:23;;;;;;;9.75;3.17;;;15.70;99.90;;;;;;5034034;28;20450;-76
2023/08/01 04:49:49;;;;;;;11.10;3.15;;;15.80;99.90;;;;;;5033965;28;20511;-76
2023/08/01 04:52:15;;;;;;;9.10;3.30;;;15.80;99.90;;;;;;5034964;28;20089;-76
2023/08/01 04:54:40;;;;;;;12.10;3.70;;;15.70;99.90;;;;;;5033851;28;20140;-76
2023/08/01 04:57:06;;;;;;;12.32;3.78;;;15.80;99.90;;;;;;5034822;28;20124;-75
2023/08/01 04:59:32;;;;;;;10.32;3.10;;;15.80;99.90;;;;;;5035267;28;20049;-76
2023/08/01 05:01:58;;;;;;;7.85;3.20;;;15.80;99.90;;;;;;5033294;28;20049;-75
2023/08/01 05:04:24;;;;;;;11.27;3.40;;;15.90;99.90;;;;;;5034866;28;20136;-75
2023/08/01 05:06:50;;;;;;;8.60;3.10;;;16.00;99.90;;;;;;5033907;28;20052;-74
2023/08/01 05:09:16;;;;;;;11.15;3.28;;;16.00;99.90;;;;;;5034432;28;20037;-77
2023/08/01 05:11:41;;;;;;;11.13;2.67;;;16.10;99.90;;;;;;5017288;28;20049;-75
2023/08/01 05:14:07;;;;;;;6.55;2.40;;;16.10;99.90;;;;;;5033099;28;20079;-74
2023/08/01 05:16:33;;;;;;;10.48;2.70;;;16.40;99.90;;;;;;5034620;28;20442;-75
2023/08/01 05:18:59;;;;;;;12.52;2.58;;;16.70;99.90;;;;;;5033142;28;20396;-74
2023/08/01 05:21:25;;;;;;;8.73;2.55;;;16.80;99.90;;;;;;5034703;28;20041;-74
2023/08/01 05:23:50;;;;;;;12.98;3.28;;;16.90;99.90;;;;;;5034251;28;20491;-74
2023/08/01 05:26:16;;;;;;;10.80;2.72;;;16.90;99.90;;;;;;5034311;28;20132;-74
2023/08/01 05:28:42;;;;;;;8.23;2.80;;;17.00;99.90;;;;;;5034520;28;20037;-75
2023/08/01 05:31:08;;;;;;;11.00;2.92;;;16.90;99.90;;;;;;5033066;28;20537;-74
2023/08/01 05:33:37;;;;;;;10.45;2.47;;;16.80;99.90;;;;;;5034754;28;20072;-74
2023/08/01 05:36:03;;;;;;;7.93;2.67;;;16.80;99.90;;;;;;5034607;28;20045;-75
2023/08/01 05:38:29;;;;;;;7.20;2.50;;;16.60;99.90;;;;;;5034574;28;20048;-75
2023/08/01 05:40:54;;;;;;;10.48;3.08;;;16.60;99.90;;;;;;5017325;28;20558;-76
2023/08/01 05:43:20;;;;;;;11.25;2.88;;;16.50;99.90;;;;;;5033847;28;20218;-75
2023/08/01 05:45:46;;;;;;;9.95;2.95;;;16.50;99.90;;;;;;5032972;28;20052;-75
2023/08/01 05:48:13;;;;;;;8.38;2.42;;;16.40;99.90;;;;;;5032756;28;20053;-75
2023/08/01 05:50:39;;;;;;;6.97;2.35;;;16.30;99.90;;;;;;5032971;28;20051;-75
2023/08/01 05:53:05;;;;;;;7.50;2.50;;;16.30;99.90;;;;;;5032720;28;20045;-74
2023/08/01 05:55:31;;;;;;;8.02;2.30;;;16.30;99.90;;;;;;5033715;28;20532;-75
2023/08/01 05:57:57;;;;;;;6.53;2.50;;;16.30;99.90;;;;;;5032995;28;20049;-75
2023/08/01 06:00:23;;;;;;;6.03;2.50;;;16.30;99.90;;;;;;5033685;28;20303;-74
2023/08/01 06:02:48;;;;;;;9.00;2.72;;;16.40;99.90;;;;;;5038968;28;20152;-75
2023/08/01 06:05:15;;;;;;;6.85;2.72;;;16.50;99.90;;;;;;5037645;28;20049;-75
2023/08/01 06:07:41;;;;;;;7.15;2.95;;;16.70;99.90;;;;;;5017039;28;20186;-74
2023/08/01 06:10:07;;;;;;;9.25;2.53;;;16.70;99.90;;;;;;5033312;28;20483;-74
2023/08/01 06:12:33;;;;;;;9.18;3.28;;;16.70;99.90;;;;;;5032020;28;20053;-74
2023/08/01 06:14:58;;;;;;;8.05;3.08;;;16.70;99.90;;;;;;5033699;28;20051;-74
2023/08/01 06:17:24;;;;;;;6.32;2.60;;;16.70;99.90;;;;;;5033286;28;20041;-75
2023/08/01 06:19:51;;;;;;;7.00;2.65;;;16.60;99.90;;;;;;5031917;28;20045;-74
2023/08/01 06:22:16;;;;;;;6.45;2.67;;;16.50;99.90;;;;;;5032384;28;20061;-75
2023/08/01 06:24:42;;;;;;;6.18;2.75;;;16.50;99.90;;;;;;5031526;28;20442;-76
2023/08/01 06:27:08;;;;;;;8.38;2.70;;;16.50;99.90;;;;;;5030328;28;20046;-77
2023/08/01 06:29:34;;;;;;;7.97;2.72;;;16.50;99.90;;;;;;5014839;28;20046;-77
2023/08/01 06:31:59;;;;;;;7.38;2.65;;;16.50;99.90;;;;;;5014563;28;20364;-76
2023/08/01 06:34:25;;;;;;;5.95;2.60;;;16.40;99.90;;;;;;5013211;28;20223;-75
2023/08/01 06:36:51;;;;;;;7.68;2.40;;;16.40;99.90;;;;;;5030743;28;20053;-76
2023/08/01 06:39:17;;;;;;;6.05;2.42;;;16.40;99.90;;;;;;5013812;28;20140;-75
2023/08/01 06:41:42;;;;;;;7.03;2.50;;;16.40;99.90;;;;;;5014503;28;20061;-74
2023/08/01 06:44:08;;;;;;;5.43;2.13;;;16.30;99.90;;;;;;5030186;28;20045;-74
2023/08/01 06:46:34;;;;;;;8.48;2.42;;;16.40;99.90;;;;;;5032002;28;20391;-76
2023/08/01 06:48:59;;;;;;;5.50;2.10;;;16.40;99.90;;;;;;5030721;28;20053;-75
2023/08/01 06:51:25;;;;;;;4.80;2.20;;;16.30;99.90;;;;;;5031632;28;20046;-75
2023/08/01 06:53:51;;;;;;;6.20;2.42;;;16.40;99.90;;;;;;5030114;28;20134;-75
2023/08/01 06:56:23;;;;;;;5.53;2.10;;;16.30;99.90;;;;;;5075361;27;20399;-76
2023/08/01 06:58:50;;;;;;;3.97;2.10;;;16.30;99.90;;;;;;5065032;28;20190;-75
2023/08/01 07:01:15;;;;;;;3.78;1.80;;;16.30;99.90;;;;;;5058943;28;20052;-72
2023/08/01 07:03:41;;;;;;;7.07;2.25;;;16.40;99.90;;;;;;5065991;28;20040;-70
2023/08/01 07:06:07;;;;;;;4.20;2.30;;;16.50;99.90;;;;;;5046283;28;20092;-73
2023/08/01 07:08:32;;;;;;;5.95;2.00;;;16.50;99.90;;;;;;5047620;28;20512;-72
2023/08/01 07:10:59;;;;;;;5.00;1.90;;;16.60;99.90;;;;;;5064598;28;20049;-72
2023/08/01 07:13:25;;;;;;;7.05;2.17;;;16.70;99.90;;;;;;5065549;28;20059;-71
2023/08/01 07:15:51;;;;;;;5.72;2.30;;;16.80;99.90;;;;;;5065513;28;20044;-72
2023/08/01 07:18:16;;;;;;;6.82;1.92;;;16.80;99.90;;;;;;5064066;28;20056;-70
2023/08/01 07:20:42;;;;;;;5.38;2.00;;;16.90;99.90;;;;;;5030707;28;20049;-72
2023/08/01 07:23:08;;;;;;;5.97;2.10;;;17.00;99.90;;;;;;5046839;28;20048;-73
2023/08/01 07:25:33;;;;;;;6.18;2.40;;;17.20;99.90;;;;;;5056102;28;20049;-71
2023/08/01 07:27:59;;;;;;;5.47;2.20;;;17.60;99.90;;;;;;5044944;28;20083;-72
2023/08/01 07:30:25;;;;;;;6.97;1.98;;;17.90;99.90;;;;;;5075774;28;20048;-71
2023/08/01 07:32:50;;;;;;;7.70;1.98;;;18.10;99.90;;;;;;5075755;28;20128;-74
2023/08/01 07:35:17;;;;;;;4.28;1.85;;;18.10;99.90;;;;;;5046900;28;20056;-71
2023/08/01 07:37:43;;;;;;;5.57;1.60;;;18.10;99.90;;;;;;5064296;28;20091;-70
2023/08/01 07:40:09;;;;;;;6.20;1.65;;;17.90;99.90;;;;;;5046142;28;20080;-69
2023/08/01 07:42:35;;;;;;;7.88;1.67;;;17.90;99.90;;;;;;5063301;28;20140;-70
2023/08/01 07:45:00;;;;;;;7.80;1.90;;;17.90;99.90;;;;;;5047510;28;20087;-71
2023/08/01 07:47:26;;;;;;;9.35;1.65;;;17.90;99.90;;;;;;5064127;28;20391;-71
2023/08/01 07:49:52;;;;;;;9.38;2.03;;;17.80;99.90;;;;;;5066599;28;20075;-71
2023/08/01 07:52:18;;;;;;;10.00;2.25;;;17.80;99.90;;;;;;5038234;28;20124;-73
2023/08/01 07:54:43;;;;;;;5.53;1.80;;;17.60;99.90;;;;;;5066306;28;20065;-71
2023/08/01 07:57:09;;;;;;;8.10;1.58;;;17.60;99.90;;;;;;5086881;28;20184;-70
2023/08/01 07:59:35;;;;;;;5.85;1.73;;;17.60;99.90;;;;;;5061993;28;20053;-70
2023/08/01 08:02:00;;;;;;;5.78;1.38;;;17.70;99.90;;;;;;5065160;28;20044;-71
2023/08/01 08:04:26;;;;;;;8.73;1.92;;;18.00;99.90;;;;;;5047160;28;20139;-70
2023/08/01 08:06:52;;;;;;;8.15;1.70;;;18.80;99.90;;;;;;5055245;28;20048;-70
2023/08/01 08:09:18;;;;;;;5.18;1.48;;;19.80;99.90;;;;;;5033928;28;20387;-70
2023/08/01 08:11:44;;;;;;;7.15;1.50;;;20.30;99.90;;;;;;5049900;28;20045;-69
2023/08/01 08:14:11;;;;;;;5.38;1.50;;;20.30;99.90;;;;;;5049817;28;20394;-70
2023/08/01 08:16:37;;;;;;;4.75;1.48;;;20.10;99.90;;;;;;5049906;28;20053;-71
2023/08/01 08:19:02;;;;;;;6.35;1.60;;;19.80;99.90;;;;;;5066209;28;20052;-70
2023/08/01 08:21:28;;;;;;;4.45;1.42;;;19.60;99.90;;;;;;5051761;28;20099;-69
2023/08/01 08:23:55;;;;;;;7.35;1.33;;;19.40;99.90;;;;;;5050895;28;20086;-70
2023/08/01 08:26:20;;;;;;;3.33;1.20;;;19.30;99.90;;;;;;5034197;28;20053;-70
2023/08/01 08:28:47;;;;;;;5.43;1.45;;;19.10;99.90;;;;;;5050086;28;20060;-68
2023/08/01 08:31:13;;;;;;;4.13;1.52;;;18.80;99.90;;;;;;5049914;28;20049;-70
2023/08/01 08:33:39;;;;;;;3.97;1.30;;;18.60;99.90;;;;;;5049880;28;20045;-70
2023/08/01 08:36:04;;;;;;;4.97;1.60;;;18.40;99.90;;;;;;5052108;28;20493;-69
2023/08/01 08:38:30;;;;;;;5.90;1.90;;;18.20;99.90;;;;;;5050450;28;20045;-70
2023/08/01 08:41:09;;;;;;;2.30;1.30;;;18.00;99.90;;;;;;5050677;28;20135;-70
2023/08/01 08:43:35;;;;;;;5.10;1.45;;;17.90;99.90;;;;;;5049349;28;20048;-69
2023/08/01 08:46:03;;;;;;;4.93;1.63;;;17.80;99.90;;;;;;5049288;28;20037;-69
2023/08/01 08:48:30;;;;;;;4.47;1.48;;;17.60;99.90;;;;;;5049193;28;20116;-71
2023/08/01 08:51:00;;;;;;;4.68;1.48;;;17.50;99.90;;;;;;5049560;28;20049;-69
2023/08/01 08:53:26;;;;;;;3.72;1.40;;;17.40;99.90;;;;;;5049553;28;20052;-72
2023/08/01 08:55:52;;;;;;;4.57;1.73;;;17.30;99.90;;;;;;5036772;28;20494;-70
2023/08/01 08:58:19;;;;;;;6.38;1.85;;;17.30;99.90;;;;;;5046948;28;20142;-70
2023/08/01 09:00:45;;;;;;;7.20;2.10;;;17.30;99.90;;;;;;5049630;28;20087;-70
2023/08/01 09:03:12;;;;;;;7.50;1.95;;;17.30;99.90;;;;;;5051000;28;20150;-71
2023/08/01 09:05:46;;;;;;;2.95;1.38;;;17.40;99.90;;;;;;5014450;28;20056;-71
2023/08/01 09:08:19;;;;;;;5.82;1.75;;;17.60;99.90;;;;;;5027058;28;20128;-71
2023/08/01 09:10:45;;;;;;;5.93;1.80;;;18.10;99.90;;;;;;5040133;28;20121;-69
2023/08/01 09:13:11;;;;;;;6.28;1.80;;;18.90;99.90;;;;;;5049934;28;20049;-70
2023/08/01 09:15:39;;;;;;;6.95;1.80;;;19.90;99.90;;;;;;5036159;28;20037;-71
2023/08/01 09:18:07;;;;;;;7.32;2.13;;;20.60;99.90;;;;;;5067392;28;20372;-70
2023/08/01 09:20:43;;;;;;;5.43;1.77;;;20.80;99.90;;;;;;5037819;28;20048;-71
2023/08/01 09:23:11;;;;;;;4.50;1.70;;;20.50;99.90;;;;;;5046652;28;20041;-71
2023/08/01 09:25:37;;;;;;;5.53;1.80;;;20.30;99.90;;;;;;5031690;28;20352;-72
2023/08/01 09:28:14;;;;;;;5.25;1.80;;;20.00;99.90;;;;;;5051102;28;20064;-72
2023/08/01 09:30:46;;;;;;;7.38;2.03;;;19.60;99.90;;;;;;5040311;28;20056;-71
2023/08/01 09:33:12;;;;;;;5.18;1.90;;;19.40;99.90;;;;;;5041333;28;20102;-70
2023/08/01 09:35:41;;;;;;;8.73;2.10;;;19.20;99.90;;;;;;5032707;28;20076;-69
2023/08/01 09:38:07;;;;;;;6.03;1.80;;;19.00;99.90;;;;;;5048238;28;20479;-69
2023/08/01 09:40:36;;;;;;;;;;;18.80;99.90;;;;;;5047803;28;20051;-72
2023/08/01 09:43:01;;;;;;;7.68;1.77;;;18.50;99.90;;;;;;5050993;28;20426;-72
2023/08/01 09:45:27;;;;;;;4.38;1.50;;;18.40;99.90;;;;;;5050857;28;20048;-72
2023/08/01 09:47:53;;;;;;;4.45;1.40;;;18.20;99.90;;;;;;5051027;28;20542;-76
2023/08/01 09:50:23;;;;;;;2.67;1.35;;;18.10;99.90;;;;;;5051533;28;20101;-72
2023/08/01 09:52:52;;;;;;;3.90;1.42;;;18.40;99.90;;;;;;5050598;28;20044;-72
2023/08/01 09:55:32;;;;;;;5.70;1.65;;;18.80;99.90;;;;;;5043866;28;20115;-71
2023/08/01 09:57:59;;;;;;;4.00;1.40;;;19.30;99.90;;;;;;5047373;28;20406;-69
2023/08/01 10:00:27;;;;;;;4.07;1.70;;;19.70;99.90;;;;;;5050624;28;20098;-71
2023/08/01 10:02:54;;;;;;;3.00;1.33;;;20.00;99.90;;;;;;5050661;28;20036;-71
2023/08/01 10:05:20;;;;;;;5.38;1.55;;;20.20;99.90;;;;;;5051290;28;20057;-71
2023/08/01 10:07:48;;;;;;;5.22;1.73;;;20.50;99.90;;;;;;5067367;28;20060;-70
2023/08/01 10:10:15;;;;;;;7.22;1.83;;;20.70;99.90;;;;;;5051954;28;20056;-71
2023/08/01 10:12:45;;;;;;;6.93;1.90;;;20.90;99.90;;;;;;5026360;28;20045;-73
2023/08/01 10:15:11;;;;;;;6.53;1.90;;;21.10;99.90;;;;;;5048057;28;20148;-71
2023/08/01 10:17:37;;;;;;;4.05;1.60;;;21.30;99.90;;;;;;5046367;28;20037;-72
2023/08/01 10:20:04;;;;;;;7.70;1.95;;;21.30;99.90;;;;;;5048227;28;20036;-72
2023/08/01 10:22:31;;;;;;;7.28;1.80;;;21.40;99.90;;;;;;5050188;28;20075;-72
2023/08/01 10:24:57;;;;;;;7.15;1.73;;;21.50;99.90;;;;;;5047696;28;20193;-72
2023/08/01 10:27:23;;;;;;;3.38;1.48;;;21.40;99.90;;;;;;5028899;28;20060;-73
2023/08/01 10:30:01;;;;;;;4.97;1.50;;;21.10;99.90;;;;;;5049297;28;20083;-72
2023/08/01 10:32:35;;;;;;;6.35;1.65;;;20.60;99.90;;;;;;5049221;28;20441;-73
2023/08/01 10:35:01;;;;;;;5.80;1.85;;;20.20;99.90;;;;;;5049910;28;20451;-73
2023/08/01 10:37:38;;;;;;;5.75;1.90;;;20.00;99.90;;;;;;5051599;28;20044;-74
2023/08/01 10:40:05;;;;;;;5.30;1.80;;;19.90;99.90;;;;;;5050005;28;20049;-70
2023/08/01 10:42:41;;;;;;;5.60;1.83;;;19.80;99.90;;;;;;5049179;28;20090;-69
2023/08/01 10:45:20;;;;;;;5.93;1.90;;;20.00;99.90;;;;;;5044777;28;20053;-73
2023/08/01 10:47:46;;;;;;;5.90;1.90;;;20.10;99.90;;;;;;5044813;28;20477;-73
2023/08/01 10:50:15;;;;;;;6.28;1.63;;;20.30;99.90;;;;;;5033733;28;20077;-72
2023/08/01 10:52:42;;;;;;;8.07;1.88;;;20.40;99.90;;;;;;5035285;28;20058;-72
2023/08/01 10:55:08;;;;;;;5.43;1.55;;;20.70;99.90;;;;;;5045060;28;20089;-72
2023/08/01 10:57:48;;;;;;;5.18;2.05;;;20.90;99.90;;;;;;5027849;28;20056;-72
2023/08/01 11:00:17;;;;;;;3.83;1.63;;;21.10;99.90;;;;;;5051277;28;20052;-72
2023/08/01 11:02:51;;;;;;;8.27;1.95;;;21.10;99.90;;;;;;5049326;28;20057;-72
2023/08/01 11:05:18;;;;;;;4.70;1.80;;;21.00;99.90;;;;;;5050131;28;20080;-72
2023/08/01 11:07:56;;;;;;;4.82;1.80;;;20.70;99.90;;;;;;5049887;28;20084;-71
2023/08/01 11:10:22;;;;;;;5.88;1.80;;;20.80;99.90;;;;;;5063823;28;20045;-72
2023/08/01 11:12:48;;;;;;;8.40;1.88;;;20.90;99.90;;;;;;5050059;28;20052;-72
2023/08/01 11:15:15;;;;;;;3.72;1.70;;;21.00;99.90;;;;;;5050340;28;20045;-73
2023/08/01 11:17:42;;;;;;;7.60;1.73;;;21.20;99.90;;;;;;5048996;28;20048;-73
2023/08/01 11:20:10;;;;;;;8.73;2.22;;;21.40;99.90;;;;;;5049507;28;20120;-74
2023/08/01 11:22:38;;;;;;;7.30;1.75;;;21.50;99.90;;;;;;5051008;28;20087;-74
2023/08/01 11:25:04;;;;;;;6.65;1.80;;;21.40;99.90;;;;;;5049294;28;20044;-73
2023/08/01 11:27:30;;;;;;;7.85;1.80;;;21.40;99.90;;;;;;5045638;28;20057;-74
2023/08/01 11:29:56;;;;;;;5.53;1.63;;;21.30;99.90;;;;;;5050051;28;20126;-73
2023/08/01 11:32:34;;;;;;;7.10;1.52;;;21.20;99.90;;;;;;5048610;28;20057;-74
2023/08/01 11:34:59;;;;;;;5.57;1.77;;;21.30;99.90;;;;;;5050871;28;20045;-73
2023/08/01 11:37:26;;;;;;;7.15;1.73;;;21.40;99.90;;;;;;5049501;28;20496;-73
2023/08/01 11:39:52;;;;;;;5.70;1.67;;;21.40;99.90;;;;;;5047657;28;20045;-72
2023/08/01 11:42:18;;;;;;;5.53;1.55;;;21.50;99.90;;;;;;5051915;28;20106;-74
2023/08/01 11:44:44;;;;;;;7.43;1.98;;;21.60;99.90;;;;;;5052621;28;20044;-73
2023/08/01 11:47:16;;;;;;;3.85;1.55;;;21.70;99.90;;;;;;5052918;28;20145;-74
2023/08/01 11:49:49;;;;;;;3.90;1.40;;;21.90;99.90;;;;;;5085992;28;20041;-73
2023/08/01 11:52:46;;;;;;;6.80;1.90;;;21.90;99.90;;;;;;5051860;28;20170;-73
2023/08/01 11:55:22;;;;;;;5.40;1.48;;;21.90;99.90;;;;;;5037940;28;20387;-73
2023/08/01 11:57:55;;;;;;;4.07;1.50;;;21.80;99.90;;;;;;5053185;28;20458;-73
2023/08/01 12:00:23;;;;;;;3.97;1.27;;;21.70;99.90;;;;;;5054473;28;20477;-72
2023/08/01 12:02:49;;;;;;;4.90;1.50;;;21.70;99.90;;;;;;5053545;28;20064;-73
2023/08/01 12:05:22;;;;;;;4.60;1.58;;;21.70;99.90;;;;;;5054364;28;20478;-73
2023/08/01 12:07:48;;;;;;;6.50;1.67;;;21.50;99.90;;;;;;5053636;28;20059;-73
2023/08/01 12:10:13;;;;;;;5.75;1.50;;;21.40;99.90;;;;;;5053491;28;20653;-73
2023/08/01 12:12:46;;;;;;;6.82;1.13;;;21.40;99.90;;;;;;5053062;28;20055;-73
2023/08/01 12:15:14;;;;;;;6.75;1.35;;;21.40;99.90;;;;;;5052783;28;20640;-73
2023/08/01 12:17:40;;;;;;;4.35;1.50;;;21.40;99.90;;;;;;5035931;28;20049;-72
2023/08/01 12:20:06;;;;;;;5.22;1.40;;;21.40;99.90;;;;;;5052152;28;20095;-72
2023/08/01 12:22:32;;;;;;;4.53;1.50;;;21.30;99.90;;;;;;5052779;28;20124;-72
2023/08/01 12:24:58;;;;;;;12.23;1.98;;;21.20;99.90;;;;;;5069230;28;20112;-72
2023/08/01 12:27:23;;;;;;;7.45;1.88;;;21.10;99.90;;;;;;5050308;28;20052;-73
2023/08/01 12:29:49;;;;;;;10.90;1.80;;;21.10;99.90;;;;;;5053664;28;20044;-73
2023/08/01 12:32:15;;;;;;;5.82;1.40;;;21.00;99.90;;;;;;5040489;28;20037;-73
2023/08/01 12:34:41;;;;;;;5.38;1.67;;;21.00;99.90;;;;;;5054560;28;20052;-72
2023/08/01 12:37:06;;;;;;;6.93;1.95;;;21.00;99.90;;;;;;5045116;28;20151;-73
2023/08/01 12:39:32;;;;;;;7.18;1.75;;;21.00;99.90;;;;;;5051499;28;20122;-72